Terminal Aerodrome Forecast
Issued by NWS Shreveport, LA

Home | Current Version | Previous Version | Text Only | Print | Product List | Glossary On
Versions: 1 2 3 4 5 6 7 8 9 10 11 12
000
FTUS44 KSHV 010500
TAFMLU
TAF
KMLU 010524Z 0106/0206 06005KT P6SM -RA SCT050 OVC060
      TEMPO 0106/0110 5SM SHRA BR BKN040
     FM011000 06004KT 5SM -SHRA BR SCT030 OVC035
     FM011300 07004KT 4SM -SHRA BR OVC023
     FM011500 07005KT 5SM -SHRA BR OVC015
     FM011800 05005KT P6SM VCTS BKN020CB
     FM020000 04004KT P6SM BKN025=

USA.gov is the U.S. government's official web portal to all federal, state and local government web resources and services.